createdAt,value
2022-11-09T00:02:17.262Z,69.30
2022-11-09T00:04:43.971Z,68.40
2022-11-09T00:07:10.768Z,67.60
2022-11-09T00:09:37.511Z,67.60
2022-11-09T00:12:05.747Z,66.70
2022-11-09T00:14:32.482Z,66.40
2022-11-09T00:16:59.267Z,65.60
2022-11-09T00:19:26.070Z,63.90
2022-11-09T00:21:52.831Z,63.50
2022-11-09T00:24:19.520Z,63.40
2022-11-09T00:26:46.232Z,62.10
2022-11-09T00:29:12.918Z,62.00
2022-11-09T00:31:39.652Z,62.20
2022-11-09T00:34:06.348Z,61.90
2022-11-09T00:36:33.032Z,61.00
2022-11-09T00:39:00.801Z,60.00
2022-11-09T00:41:28.034Z,60.20
2022-11-09T00:43:54.812Z,58.90
2022-11-09T00:46:22.046Z,58.70
2022-11-09T00:48:49.123Z,58.20
2022-11-09T00:51:16.152Z,58.20
2022-11-09T00:53:43.493Z,58.60
2022-11-09T00:56:12.524Z,58.10
2022-11-09T00:58:40.998Z,58.30
2022-11-09T01:01:13.467Z,58.00
2022-11-09T01:03:41.114Z,57.50
2022-11-09T01:06:08.919Z,57.60
2022-11-09T01:08:36.190Z,57.30
2022-11-09T01:11:07.869Z,57.20
2022-11-09T01:13:35.959Z,56.80
2022-11-09T01:16:06.886Z,56.20
2022-11-09T01:18:34.095Z,55.90
2022-11-09T01:21:03.564Z,55.10
2022-11-09T01:23:30.329Z,55.40
2022-11-09T01:26:10.087Z,55.20
2022-11-09T01:28:37.227Z,55.40
2022-11-09T01:31:06.429Z,55.20
2022-11-09T01:33:34.041Z,54.50
2022-11-09T01:36:09.462Z,54.20
2022-11-09T01:38:37.933Z,54.40
2022-11-09T01:41:06.323Z,54.80
2022-11-09T01:43:33.125Z,54.00
2022-11-09T01:46:12.498Z,53.80
2022-11-09T01:48:48.064Z,53.60
2022-11-09T01:51:19.513Z,53.10
2022-11-09T01:53:51.470Z,53.00
2022-11-09T01:56:19.357Z,53.00
2022-11-09T01:59:00.659Z,52.90
2022-11-09T02:01:28.004Z,53.00
2022-11-09T02:04:01.715Z,53.40
2022-11-09T02:06:30.329Z,53.40
2022-11-09T02:09:25.572Z,53.50
2022-11-09T02:11:52.323Z,53.60
2022-11-09T02:14:22.492Z,53.40
2022-11-09T02:16:49.926Z,54.00
2022-11-09T02:19:16.757Z,53.90
2022-11-09T02:21:43.635Z,54.00
2022-11-09T02:24:10.481Z,54.20
2022-11-09T02:26:52.535Z,54.10
2022-11-09T02:29:35.498Z,54.30
2022-11-09T02:32:08.596Z,54.20
2022-11-09T02:34:35.362Z,54.10
2022-11-09T02:37:02.122Z,53.80
2022-11-09T02:39:29.090Z,54.10
2022-11-09T02:42:21.144Z,54.30
2022-11-09T02:44:52.922Z,54.50
2022-11-09T02:47:19.673Z,55.30
2022-11-09T02:49:46.571Z,55.60
2022-11-09T02:52:13.485Z,55.90
2022-11-09T02:54:40.270Z,56.30
2022-11-09T02:57:07.049Z,56.30
2022-11-09T02:59:33.863Z,56.80
2022-11-09T03:02:00.782Z,56.90
2022-11-09T03:04:27.507Z,57.20
2022-11-09T03:06:54.286Z,57.30
2022-11-09T03:09:20.994Z,57.50
2022-11-09T03:11:47.795Z,57.80
2022-11-09T03:14:14.717Z,58.00
2022-11-09T03:16:44.207Z,58.70
2022-11-09T03:19:13.420Z,58.80
2022-11-09T03:21:40.183Z,58.60
2022-11-09T03:24:07.317Z,58.50
2022-11-09T03:26:34.126Z,58.40
2022-11-09T03:29:00.848Z,58.40
2022-11-09T03:31:27.537Z,58.20
2022-11-09T03:33:54.268Z,57.90
2022-11-09T03:36:21.003Z,57.80
2022-11-09T03:38:47.700Z,58.00
2022-11-09T03:41:14.403Z,58.10
2022-11-09T03:43:41.102Z,58.20
2022-11-09T03:46:07.826Z,58.10
2022-11-09T03:48:34.525Z,58.10
2022-11-09T03:51:01.277Z,57.80
2022-11-09T03:53:27.984Z,58.30
2022-11-09T03:55:57.968Z,58.60
2022-11-09T03:58:24.778Z,58.60
2022-11-09T04:00:51.492Z,57.90
2022-11-09T04:03:18.468Z,57.90
2022-11-09T04:05:45.344Z,57.90
2022-11-09T04:08:12.038Z,57.60
2022-11-09T04:10:38.747Z,58.10
2022-11-09T04:13:05.521Z,58.60
2022-11-09T04:15:32.223Z,58.70
2022-11-09T04:18:00.999Z,58.60
2022-11-09T04:20:29.733Z,59.10
2022-11-09T04:22:58.247Z,59.40
2022-11-09T04:25:26.111Z,59.90
2022-11-09T04:27:57.364Z,60.30
2022-11-09T04:30:27.966Z,59.70
2022-11-09T04:32:59.268Z,59.50
2022-11-09T04:35:27.564Z,59.70
2022-11-09T04:38:05.556Z,59.40
2022-11-09T04:40:34.116Z,59.30
2022-11-09T04:43:02.144Z,58.80
2022-11-09T04:45:28.945Z,58.10
2022-11-09T04:48:04.412Z,57.50
2022-11-09T04:50:31.184Z,57.00
2022-11-09T04:53:12.292Z,56.80
2022-11-09T04:55:40.265Z,56.10
2022-11-09T04:58:07.407Z,57.20
2022-11-09T05:00:34.655Z,56.80
2022-11-09T05:03:03.098Z,57.30
2022-11-09T05:05:30.314Z,57.10
2022-11-09T05:07:57.045Z,57.10
2022-11-09T05:10:23.873Z,56.30
2022-11-09T05:12:50.597Z,56.90
2022-11-09T05:15:17.323Z,57.10
2022-11-09T05:17:44.090Z,56.80
2022-11-09T05:20:11.323Z,56.70
2022-11-09T05:22:59.411Z,56.30
2022-11-09T05:25:26.687Z,56.20
2022-11-09T05:27:53.593Z,56.00
2022-11-09T05:30:20.475Z,55.50
2022-11-09T05:32:47.316Z,55.70
2022-11-09T05:35:14.169Z,56.10
2022-11-09T05:37:40.952Z,56.40
2022-11-09T05:40:09.314Z,56.30
2022-11-09T05:42:40.463Z,55.70
2022-11-09T05:45:40.827Z,56.20
2022-11-09T05:47:59.642Z,56.40
2022-11-09T05:50:26.385Z,56.80
2022-11-09T05:52:54.271Z,57.10
2022-11-09T05:55:21.001Z,58.70
2022-11-09T05:57:47.714Z,58.60
2022-11-09T06:00:15.184Z,58.60
2022-11-09T06:02:41.916Z,58.70
2022-11-09T06:05:09.089Z,58.50
2022-11-09T06:07:35.808Z,57.60
2022-11-09T06:10:03.052Z,56.50
2022-11-09T06:12:29.885Z,56.00
2022-11-09T06:14:56.682Z,55.80
2022-11-09T06:17:23.630Z,56.00
2022-11-09T06:19:50.357Z,56.30
2022-11-09T06:22:17.389Z,56.40
2022-11-09T06:24:44.226Z,56.10
2022-11-09T06:27:10.988Z,57.00
2022-11-09T06:29:37.715Z,57.80
2022-11-09T06:32:04.724Z,58.20
2022-11-09T06:34:31.498Z,58.30
2022-11-09T06:36:58.343Z,58.00
2022-11-09T06:39:25.145Z,58.50
2022-11-09T06:41:51.881Z,58.50
2022-11-09T06:44:18.650Z,58.00
2022-11-09T06:46:45.461Z,58.00
2022-11-09T06:49:12.260Z,58.10
2022-11-09T06:51:39.060Z,57.90
2022-11-09T06:54:05.896Z,56.90
2022-11-09T06:56:32.678Z,56.00
2022-11-09T06:58:59.377Z,56.00
2022-11-09T07:01:28.762Z,57.50
2022-11-09T07:03:55.623Z,57.30
2022-11-09T07:06:22.875Z,57.00
2022-11-09T07:08:49.614Z,57.10
2022-11-09T07:11:16.876Z,56.60
2022-11-09T07:13:43.651Z,56.50
2022-11-09T07:16:12.702Z,56.80
2022-11-09T07:18:39.757Z,56.10
2022-11-09T07:21:10.201Z,55.50
2022-11-09T07:23:41.044Z,55.10
2022-11-09T07:26:07.938Z,54.50
2022-11-09T07:28:35.053Z,54.20
2022-11-09T07:31:02.360Z,54.00
2022-11-09T07:33:32.663Z,53.50
2022-11-09T07:36:01.634Z,53.10
2022-11-09T07:38:29.222Z,52.90
2022-11-09T07:41:00.236Z,52.50
2022-11-09T07:43:27.677Z,52.60
2022-11-09T07:45:54.482Z,52.40
2022-11-09T07:48:21.792Z,52.70
2022-11-09T07:50:48.588Z,52.10
2022-11-09T07:53:15.897Z,50.30
2022-11-09T07:55:43.229Z,48.10
2022-11-09T07:58:12.838Z,47.10
2022-11-09T08:00:41.178Z,47.10
2022-11-09T08:03:08.194Z,47.10
2022-11-09T08:05:35.342Z,47.40
2022-11-09T08:08:06.203Z,47.40
2022-11-09T08:10:34.272Z,46.50
2022-11-09T08:13:04.181Z,46.60
2022-11-09T08:15:31.500Z,46.60
2022-11-09T08:18:04.163Z,46.60
2022-11-09T08:20:31.583Z,47.20
2022-11-09T08:23:03.287Z,47.20
2022-11-09T08:25:33.069Z,46.50
2022-11-09T08:27:59.903Z,45.90
2022-11-09T08:30:27.403Z,45.50
2022-11-09T08:32:54.240Z,45.30
2022-11-09T08:35:23.773Z,45.60
2022-11-09T08:37:52.274Z,45.80
2022-11-09T08:40:22.357Z,46.20
2022-11-09T08:42:49.596Z,47.20
2022-11-09T08:45:17.238Z,47.50
2022-11-09T08:47:45.024Z,48.40
2022-11-09T08:50:13.196Z,48.40
2022-11-09T08:52:40.484Z,47.50
2022-11-09T08:55:08.155Z,47.30
2022-11-09T08:57:35.034Z,47.30
2022-11-09T09:00:01.919Z,46.60
2022-11-09T09:02:28.721Z,45.30
2022-11-09T09:04:55.552Z,44.90
2022-11-09T09:07:22.389Z,44.50
2022-11-09T09:09:49.801Z,44.50
2022-11-09T09:12:17.032Z,44.70
2022-11-09T09:14:43.769Z,43.60
2022-11-09T09:17:10.601Z,43.30
2022-11-09T09:19:37.408Z,43.20
2022-11-09T09:22:04.225Z,43.40
2022-11-09T09:24:31.047Z,43.00
2022-11-09T09:26:57.845Z,42.50
2022-11-09T09:29:24.617Z,41.80
2022-11-09T09:31:51.336Z,42.00
2022-11-09T09:34:18.252Z,39.80
2022-11-09T09:36:48.309Z,39.30
2022-11-09T09:39:15.880Z,39.40
2022-11-09T09:41:55.070Z,39.50
2022-11-09T09:44:43.094Z,39.60
2022-11-09T09:47:22.087Z,39.30
2022-11-09T09:50:09.121Z,39.50
2022-11-09T09:53:23.267Z,40.20
2022-11-09T09:56:04.601Z,40.40
2022-11-09T09:58:34.200Z,40.90
2022-11-09T10:01:40.714Z,41.00
2022-11-09T10:04:23.421Z,40.90
2022-11-09T10:07:15.080Z,41.80
2022-11-09T10:09:54.063Z,42.50
2022-11-09T10:12:54.911Z,42.90
2022-11-09T10:15:27.902Z,43.20
2022-11-09T10:18:21.870Z,43.60
2022-11-09T10:21:09.909Z,43.80
2022-11-09T10:23:48.680Z,44.00
2022-11-09T10:26:30.879Z,44.20
2022-11-09T10:29:15.557Z,44.40
2022-11-09T10:31:45.666Z,44.60
2022-11-09T10:34:20.236Z,45.10
2022-11-09T10:37:20.864Z,45.40
2022-11-09T10:40:06.464Z,45.50
2022-11-09T10:42:33.187Z,45.90
2022-11-09T10:45:14.109Z,46.20
2022-11-09T10:47:52.128Z,46.20
2022-11-09T10:50:37.577Z,46.50
2022-11-09T10:53:22.313Z,46.60
2022-11-09T10:56:04.671Z,46.70
2022-11-09T10:58:38.245Z,46.90
2022-11-09T11:01:25.693Z,46.90
2022-11-09T11:03:55.069Z,46.70
2022-11-09T11:06:22.009Z,47.40
2022-11-09T11:08:51.187Z,47.50
2022-11-09T11:11:37.090Z,48.10
2022-11-09T11:14:23.039Z,47.90
2022-11-09T11:16:52.779Z,48.10
2022-11-09T11:19:38.180Z,48.40
2022-11-09T11:22:14.501Z,48.60
2022-11-09T11:24:45.006Z,48.60
2022-11-09T11:27:21.613Z,48.50
2022-11-09T11:30:00.574Z,48.70
2022-11-09T11:32:27.407Z,48.50
2022-11-09T11:35:00.165Z,48.60
2022-11-09T11:37:37.896Z,49.10
2022-11-09T11:40:10.741Z,49.30
2022-11-09T11:42:51.228Z,49.40
2022-11-09T11:45:41.271Z,49.20
2022-11-09T11:48:14.721Z,49.20
2022-11-09T11:50:48.305Z,49.70
2022-11-09T11:53:50.237Z,49.20
2022-11-09T11:56:26.361Z,49.70
2022-11-09T11:58:58.773Z,49.30
2022-11-09T12:01:45.605Z,49.10
2022-11-09T12:04:32.401Z,49.50
2022-11-09T12:07:05.237Z,49.00
2022-11-09T12:09:35.074Z,48.70
2022-11-09T12:12:04.634Z,48.70
2022-11-09T12:14:42.785Z,48.90
2022-11-09T12:17:40.793Z,48.70
2022-11-09T12:20:21.626Z,48.60
2022-11-09T12:23:06.759Z,48.60
2022-11-09T12:25:43.082Z,48.70
2022-11-09T12:28:50.006Z,49.00
2022-11-09T12:31:38.877Z,48.80
2022-11-09T12:34:53.764Z,48.70
2022-11-09T12:37:35.657Z,48.90
2022-11-09T12:40:15.903Z,48.80
2022-11-09T12:42:51.284Z,49.10
2022-11-09T12:45:17.957Z,49.70
2022-11-09T12:47:45.909Z,50.20
2022-11-09T12:50:18.734Z,50.00
2022-11-09T12:52:48.224Z,49.90
2022-11-09T12:55:31.874Z,51.00
2022-11-09T12:58:01.154Z,50.60
2022-11-09T13:00:33.912Z,51.20
2022-11-09T13:03:06.861Z,51.70
2022-11-09T13:05:37.628Z,51.40
2022-11-09T13:08:16.989Z,51.30
2022-11-09T13:10:43.738Z,50.90
2022-11-09T13:13:10.444Z,51.40
2022-11-09T13:15:57.799Z,50.80
2022-11-09T13:18:26.009Z,50.80
2022-11-09T13:20:55.998Z,50.90
2022-11-09T13:23:59.442Z,50.90
2022-11-09T13:26:31.265Z,50.80
2022-11-09T13:29:18.989Z,51.30
2022-11-09T13:32:13.899Z,52.20
2022-11-09T13:34:40.681Z,52.50
2022-11-09T13:37:41.299Z,52.70
2022-11-09T13:40:32.973Z,52.80
2022-11-09T13:43:10.909Z,53.00
2022-11-09T13:45:42.364Z,53.70
2022-11-09T13:48:25.396Z,53.60
2022-11-09T13:50:56.576Z,52.90
2022-11-09T13:53:38.512Z,53.00
2022-11-09T13:56:20.695Z,53.10
2022-11-09T13:58:53.408Z,52.80
2022-11-09T14:01:36.984Z,52.80
2022-11-09T14:04:05.280Z,52.20
2022-11-09T14:06:33.306Z,52.20
2022-11-09T14:09:01.178Z,51.80
2022-11-09T14:11:47.200Z,52.10
2022-11-09T14:14:45.951Z,52.70
2022-11-09T14:17:33.695Z,52.40
2022-11-09T14:20:18.446Z,52.50
2022-11-09T14:22:45.190Z,52.50
2022-11-09T14:25:16.946Z,52.40
2022-11-09T14:27:50.559Z,52.40
2022-11-09T14:30:28.943Z,52.40
2022-11-09T14:32:57.718Z,52.70
2022-11-09T14:35:30.882Z,52.60
2022-11-09T14:37:59.373Z,52.50
2022-11-09T14:40:29.090Z,52.70
2022-11-09T14:43:10.220Z,52.60
2022-11-09T14:45:37.104Z,52.40
2022-11-09T14:48:04.300Z,52.50
2022-11-09T14:50:36.946Z,52.40
2022-11-09T14:53:05.736Z,52.40
2022-11-09T14:55:34.245Z,52.50
2022-11-09T14:58:02.587Z,52.40
2022-11-09T15:00:33.585Z,53.20
2022-11-09T15:03:20.576Z,53.80
2022-11-09T15:05:47.672Z,55.20
2022-11-09T15:08:18.017Z,56.20
2022-11-09T15:10:50.153Z,56.60
2022-11-09T15:13:17.999Z,57.10
2022-11-09T15:15:51.465Z,57.30
2022-11-09T15:18:22.351Z,58.40
2022-11-09T15:21:09.519Z,59.70
2022-11-09T15:23:39.806Z,60.20
2022-11-09T15:26:23.780Z,60.80
2022-11-09T15:28:51.496Z,62.00
2022-11-09T15:31:19.440Z,62.60
2022-11-09T15:33:53.070Z,62.90
2022-11-09T15:36:22.217Z,63.00
2022-11-09T15:39:19.912Z,63.20
2022-11-09T15:41:46.673Z,63.40
2022-11-09T15:44:14.623Z,63.50
2022-11-09T15:46:50.781Z,63.50
2022-11-09T15:49:26.210Z,63.10
2022-11-09T15:51:53.596Z,62.90
2022-11-09T15:54:24.190Z,62.70
2022-11-09T15:56:51.954Z,62.50
2022-11-09T15:59:27.003Z,62.40
2022-11-09T16:01:53.773Z,62.80
2022-11-09T16:04:20.655Z,62.80
2022-11-09T16:06:47.522Z,62.80
2022-11-09T16:09:15.547Z,62.70
2022-11-09T16:11:42.268Z,63.00
2022-11-09T16:14:09.035Z,63.40
2022-11-09T16:16:39.068Z,63.90
2022-11-09T16:19:05.849Z,64.40
2022-11-09T16:21:32.613Z,65.50
2022-11-09T16:23:59.311Z,66.40
2022-11-09T16:26:26.185Z,66.80
2022-11-09T16:28:54.760Z,66.90
2022-11-09T16:31:41.065Z,67.80
2022-11-09T16:34:08.391Z,68.20
2022-11-09T16:36:37.226Z,68.50
2022-11-09T16:39:09.262Z,69.50
2022-11-09T16:41:40.195Z,70.50
2022-11-09T16:44:07.470Z,71.50
2022-11-09T16:46:34.898Z,72.80
2022-11-09T16:49:02.938Z,73.40
2022-11-09T16:51:30.342Z,73.50
2022-11-09T16:53:57.055Z,73.70
2022-11-09T16:56:24.305Z,74.70
2022-11-09T16:58:51.117Z,74.50
2022-11-09T17:01:23.042Z,74.90
2022-11-09T17:03:50.477Z,75.60
2022-11-09T17:06:17.243Z,77.80
2022-11-09T17:08:44.166Z,80.30
2022-11-09T17:11:13.329Z,81.70
2022-11-09T17:13:40.060Z,82.30
2022-11-09T17:16:09.957Z,82.90
2022-11-09T17:18:40.205Z,83.40
2022-11-09T17:21:12.589Z,82.70
2022-11-09T17:23:39.343Z,82.60
2022-11-09T17:26:08.114Z,82.80
2022-11-09T17:28:40.073Z,83.00
2022-11-09T17:31:21.128Z,82.90
2022-11-09T17:33:48.139Z,83.60
2022-11-09T17:36:25.764Z,84.10
2022-11-09T17:39:02.160Z,84.50
2022-11-09T17:41:30.108Z,85.90
2022-11-09T17:43:59.853Z,87.90
2022-11-09T17:46:28.949Z,89.70
2022-11-09T17:48:55.873Z,90.10
2022-11-09T17:51:22.717Z,90.10
2022-11-09T17:53:49.410Z,90.60
2022-11-09T17:56:16.165Z,90.60
2022-11-09T17:58:44.846Z,90.60
2022-11-09T18:01:17.019Z,90.90
2022-11-09T18:03:44.263Z,91.00
2022-11-09T18:06:19.421Z,91.00
2022-11-09T18:08:54.965Z,91.00
2022-11-09T18:11:30.559Z,90.80
2022-11-09T18:13:58.728Z,90.90
2022-11-09T18:16:25.644Z,90.30
2022-11-09T18:18:52.316Z,90.20
2022-11-09T18:21:20.011Z,90.10
2022-11-09T18:23:46.775Z,89.70
2022-11-09T18:26:14.337Z,88.60
2022-11-09T18:28:42.739Z,88.40
2022-11-09T18:31:12.620Z,88.00
2022-11-09T18:33:42.897Z,87.80
2022-11-09T18:36:15.757Z,87.40
2022-11-09T18:38:43.660Z,87.60
2022-11-09T18:41:13.794Z,87.40
2022-11-09T18:43:41.363Z,88.60
2022-11-09T18:46:10.684Z,89.00
2022-11-09T18:48:40.349Z,89.20
2022-11-09T18:51:08.642Z,89.40
2022-11-09T18:53:38.493Z,89.60
2022-11-09T18:56:08.377Z,90.00
2022-11-09T18:58:35.660Z,90.20
2022-11-09T19:01:05.387Z,90.40
2022-11-09T19:03:32.530Z,90.50
2022-11-09T19:05:59.339Z,90.50
2022-11-09T19:08:44.965Z,90.50
2022-11-09T19:11:13.463Z,90.60
2022-11-09T19:13:40.802Z,90.70
2022-11-09T19:16:10.452Z,90.80
2022-11-09T19:18:37.219Z,90.90
2022-11-09T19:21:04.360Z,91.10
2022-11-09T19:23:34.365Z,91.10
2022-11-09T19:26:02.074Z,91.30
2022-11-09T19:28:28.928Z,91.40
2022-11-09T19:30:57.322Z,91.60
2022-11-09T19:33:24.094Z,91.80
2022-11-09T19:36:15.254Z,91.80
2022-11-09T19:38:38.931Z,92.00
2022-11-09T19:41:05.923Z,92.30
2022-11-09T19:43:32.712Z,92.40
2022-11-09T19:45:59.572Z,92.40
2022-11-09T19:48:26.311Z,92.30
2022-11-09T19:50:53.229Z,92.50
2022-11-09T19:53:20.116Z,92.60
2022-11-09T19:55:46.915Z,92.60
2022-11-09T19:58:13.814Z,92.80
2022-11-09T20:00:40.632Z,93.10
2022-11-09T20:03:07.681Z,93.00
2022-11-09T20:05:35.012Z,93.20
2022-11-09T20:08:05.424Z,93.20
2022-11-09T20:10:37.175Z,93.10
2022-11-09T20:13:03.946Z,93.40
2022-11-09T20:15:32.176Z,93.30
2022-11-09T20:17:58.943Z,93.40
2022-11-09T20:20:25.733Z,93.50
2022-11-09T20:22:52.498Z,93.60
2022-11-09T20:25:19.267Z,93.80
2022-11-09T20:27:46.038Z,93.90
2022-11-09T20:30:13.258Z,93.80
2022-11-09T20:32:40.079Z,93.60
2022-11-09T20:35:07.351Z,93.40
2022-11-09T20:37:34.075Z,93.40
2022-11-09T20:40:00.800Z,93.10
2022-11-09T20:42:27.582Z,93.40
2022-11-09T20:44:56.555Z,93.30
2022-11-09T20:47:49.126Z,93.10
2022-11-09T20:50:10.504Z,93.00
2022-11-09T20:52:37.367Z,93.10
2022-11-09T20:55:04.478Z,93.20
2022-11-09T20:57:31.224Z,93.00
2022-11-09T20:59:58.129Z,93.00
2022-11-09T21:02:24.882Z,92.70
2022-11-09T21:04:51.585Z,92.70
2022-11-09T21:07:18.323Z,92.80
2022-11-09T21:09:45.132Z,92.60
2022-11-09T21:12:24.946Z,92.50
2022-11-09T21:14:53.092Z,92.50
2022-11-09T21:17:20.182Z,92.50
2022-11-09T21:19:47.380Z,92.40
2022-11-09T21:22:14.638Z,92.60
2022-11-09T21:24:59.828Z,92.60
2022-11-09T21:27:48.227Z,92.90
2022-11-09T21:30:15.426Z,92.40
2022-11-09T21:32:42.187Z,92.30
2022-11-09T21:35:09.130Z,92.40
2022-11-09T21:37:35.874Z,92.40
2022-11-09T21:40:02.733Z,92.40
2022-11-09T21:42:29.518Z,92.50
2022-11-09T21:44:56.284Z,92.90
2022-11-09T21:47:24.261Z,92.60
2022-11-09T21:49:51.035Z,92.50
2022-11-09T21:52:17.823Z,92.50
2022-11-09T21:54:44.604Z,92.50
2022-11-09T21:57:11.411Z,92.70
2022-11-09T21:59:38.160Z,92.90
2022-11-09T22:02:05.020Z,93.00
2022-11-09T22:04:31.773Z,92.80
2022-11-09T22:06:58.642Z,92.80
2022-11-09T22:09:25.413Z,92.90
2022-11-09T22:12:10.597Z,92.70
2022-11-09T22:14:55.961Z,92.60
2022-11-09T22:17:22.713Z,92.10
2022-11-09T22:20:08.054Z,92.00
2022-11-09T22:22:36.348Z,91.90
2022-11-09T22:25:03.444Z,91.50
2022-11-09T22:27:32.089Z,91.40
2022-11-09T22:29:58.943Z,91.10
2022-11-09T22:32:25.771Z,91.30
2022-11-09T22:34:52.599Z,91.30
2022-11-09T22:37:19.461Z,91.10
2022-11-09T22:39:47.664Z,90.50
2022-11-09T22:42:14.675Z,90.40
2022-11-09T22:44:41.442Z,90.50
2022-11-09T22:47:08.309Z,90.50
2022-11-09T22:49:36.802Z,90.80
2022-11-09T22:52:04.797Z,90.70
2022-11-09T22:54:31.661Z,90.70
2022-11-09T22:56:58.505Z,90.50
2022-11-09T22:59:25.245Z,90.60
2022-11-09T23:01:52.050Z,90.60
2022-11-09T23:04:18.930Z,90.60
2022-11-09T23:06:45.661Z,90.70
2022-11-09T23:09:12.455Z,90.80
2022-11-09T23:11:39.308Z,90.80
2022-11-09T23:14:06.155Z,90.90
2022-11-09T23:16:32.950Z,91.10
2022-11-09T23:18:59.784Z,91.00
2022-11-09T23:21:29.608Z,90.80
2022-11-09T23:23:59.247Z,90.70
2022-11-09T23:26:26.799Z,90.80
2022-11-09T23:28:54.266Z,90.60
2022-11-09T23:31:24.383Z,90.70
2022-11-09T23:33:54.459Z,90.70
2022-11-09T23:36:22.591Z,90.80
2022-11-09T23:38:49.507Z,90.80
2022-11-09T23:41:16.670Z,90.50
2022-11-09T23:43:48.699Z,90.80
2022-11-09T23:46:16.364Z,90.90
2022-11-09T23:48:43.326Z,91.00
2022-11-09T23:51:10.400Z,91.00
2022-11-09T23:53:37.552Z,91.10
2022-11-09T23:56:07.523Z,91.10
2022-11-09T23:58:35.039Z,91.40
